Time;durP1;ratioP1;P1;durP2;ratioP2;P2;SDS_P1;SDS_P2;PMS_P1;PMS_P2;Temp;Humidity;BMP_temperature;BMP_pressure;BME280_temperature;BME280_humidity;BME280_pressure;Samples;Min_cycle;Max_cycle;Signal;HPM_P1;HPM_P2
2022/12/07 00:03:06;;;;;;;18.73;10.40;;;;;;;6.57;67.17;100455.47;10344220;28;20066;-70
2022/12/07 00:08:07;;;;;;;20.08;10.75;;;;;;;6.64;67.22;100452.06;10344687;28;20430;-71
2022/12/07 00:13:09;;;;;;;17.65;9.25;;;;;;;6.58;67.14;100454.50;10332429;28;20141;-71
2022/12/07 00:18:10;;;;;;;22.65;9.85;;;;;;;6.71;66.97;100447.84;10345048;28;20077;-70
2022/12/07 00:23:11;;;;;;;19.27;9.60;;;;;;;6.80;66.71;100440.75;10346467;28;20140;-70
2022/12/07 00:28:13;;;;;;;16.33;8.82;;;;;;;6.87;66.49;100435.63;10348038;28;20070;-69
2022/12/07 00:33:14;;;;;;;22.67;10.70;;;;;;;6.86;66.99;100426.78;10347431;28;20057;-70
2022/12/07 00:38:15;;;;;;;18.85;8.88;;;;;;;6.88;67.13;100423.97;10350821;28;20149;-68
2022/12/07 00:43:17;;;;;;;19.55;10.25;;;;;;;6.90;67.29;100413.97;10344895;28;20149;-71
2022/12/07 00:48:18;;;;;;;22.90;11.02;;;;;;;6.82;66.96;100416.56;10344480;28;20530;-71
2022/12/07 00:53:20;;;;;;;17.30;9.45;;;;;;;6.81;66.56;100413.03;10344272;28;20073;-70
2022/12/07 00:58:22;;;;;;;21.20;10.75;;;;;;;6.77;67.19;100408.97;10339940;28;20073;-70
2022/12/07 01:03:23;;;;;;;18.48;9.63;;;;;;;6.73;67.58;100408.44;10343711;28;20405;-71
2022/12/07 01:08:26;;;;;;;21.05;9.98;;;;;;;6.64;67.44;100400.50;10347406;28;20062;-69
2022/12/07 01:13:28;;;;;;;20.08;10.68;;;;;;;6.67;67.37;100393.00;10327118;28;20050;-71
2022/12/07 01:18:31;;;;;;;18.58;9.63;;;;;;;6.64;67.46;100393.31;10337836;28;20112;-69
2022/12/07 01:23:35;;;;;;;18.80;8.90;;;;;;;6.54;68.37;100393.38;10327289;28;20085;-69
2022/12/07 01:28:37;;;;;;;20.33;8.95;;;;;;;6.57;67.64;100397.56;10344790;28;20133;-70
2022/12/07 01:33:39;;;;;;;17.80;8.52;;;;;;;6.48;67.59;100401.97;10340522;28;20157;-70
2022/12/07 01:38:41;;;;;;;18.52;9.18;;;;;;;6.45;67.64;100414.78;10343677;28;20073;-69
2022/12/07 01:44:07;;;;;;;17.05;8.43;;;;;;;6.39;68.47;100402.00;10348739;28;20129;-68
2022/12/07 01:49:15;;;;;;;17.00;8.52;;;;;;;6.35;68.07;100404.97;10346257;28;20074;-69
2022/12/07 01:54:18;;;;;;;20.95;8.48;;;;;;;6.26;69.06;100399.66;10343888;28;20141;-67
2022/12/07 01:59:22;;;;;;;14.85;6.75;;;;;;;6.25;68.26;100388.16;10345651;28;20572;-68
2022/12/07 02:04:24;;;;;;;15.80;6.97;;;;;;;6.21;69.31;100391.28;10344280;28;20066;-69
2022/12/07 02:09:25;;;;;;;14.88;6.88;;;;;;;6.13;69.25;100373.31;10338186;28;20529;-69
2022/12/07 02:14:27;;;;;;;13.73;6.88;;;;;;;6.13;68.96;100368.81;10343124;28;20434;-68
2022/12/07 02:19:47;;;;;;;14.52;6.63;;;;;;;6.15;69.09;100376.69;10344260;28;20073;-68
2022/12/07 02:25:21;;;;;;;18.15;6.82;;;;;;;6.08;69.49;100356.91;10343564;28;20066;-68
2022/12/07 02:30:28;;;;;;;14.73;7.28;;;;;;;6.07;69.48;100361.41;10338474;28;20561;-67
2022/12/07 02:35:37;;;;;;;10.90;5.78;;;;;;;6.04;69.62;100374.19;10342306;28;20137;-67
2022/12/07 02:40:45;;;;;;;13.38;5.93;;;;;;;6.18;69.25;100363.06;10342920;28;20049;-68
2022/12/07 02:45:48;;;;;;;17.77;6.70;;;;;;;6.21;68.59;100365.41;10338081;28;20140;-69
2022/12/07 02:50:52;;;;;;;16.25;6.75;;;;;;;6.23;68.15;100355.44;10352465;28;20046;-69
2022/12/07 02:55:53;;;;;;;9.88;4.78;;;;;;;6.19;68.39;100358.56;10343014;28;20132;-69
2022/12/07 03:01:08;;;;;;;12.93;6.20;;;;;;;6.17;69.47;100358.69;10348274;28;20593;-70
2022/12/07 03:06:28;;;;;;;14.43;6.13;;;;;;;6.14;69.28;100357.19;10328329;28;20709;-69
2022/12/07 03:11:48;;;;;;;16.15;6.47;;;;;;;6.17;69.21;100349.84;10330818;28;20077;-68
2022/12/07 03:17:05;;;;;;;14.73;7.13;;;;;;;6.22;68.97;100358.25;10344711;28;20187;-69
2022/12/07 03:22:11;;;;;;;13.73;6.90;;;;;;;6.38;68.16;100341.59;10331730;28;20383;-69
2022/12/07 03:27:21;;;;;;;11.38;5.45;;;;;;;6.31;68.25;100344.03;10347067;28;20077;-69
2022/12/07 03:32:33;;;;;;;17.83;6.72;;;;;;;6.25;68.98;100344.63;10348373;28;20136;-68
2022/12/07 03:37:56;;;;;;;13.10;6.85;;;;;;;6.19;69.66;100337.22;10344394;28;20076;-69
2022/12/07 03:43:01;;;;;;;12.95;6.38;;;;;;;6.13;69.44;100347.47;10346209;28;20109;-69
2022/12/07 03:48:26;;;;;;;13.85;6.78;;;;;;;6.08;69.18;100344.41;10349131;28;20077;-68
2022/12/07 03:53:37;;;;;;;11.93;6.90;;;;;;;6.26;69.53;100330.28;10332165;28;20141;-69
2022/12/07 03:58:40;;;;;;;14.60;6.88;;;;;;;6.27;68.87;100329.28;10349526;28;20077;-69
2022/12/07 04:03:42;;;;;;;13.35;5.93;;;;;;;6.20;69.38;100338.88;10333299;28;20069;-69
2022/12/07 04:08:43;;;;;;;13.15;6.55;;;;;;;6.23;69.28;100342.09;10340401;28;20473;-69
2022/12/07 04:19:04;;;;;;;16.05;6.57;;;;;;;6.34;69.31;100328.56;10344946;28;20157;-69
2022/12/07 04:24:06;;;;;;;11.52;5.47;;;;;;;6.51;68.91;100334.06;10332170;28;20073;-69
2022/12/07 04:29:09;;;;;;;12.15;5.97;;;;;;;6.52;68.97;100325.91;10341723;28;20136;-69
2022/12/07 04:34:11;;;;;;;11.25;6.13;;;;;;;6.61;68.81;100324.16;10348513;28;20073;-69
2022/12/07 04:39:24;;;;;;;15.32;5.85;;;;;;;6.57;68.53;100324.63;10344201;28;20065;-69
2022/12/07 04:44:27;;;;;;;14.18;6.30;;;;;;;6.46;68.82;100326.53;10345214;28;20046;-69
2022/12/07 04:49:28;;;;;;;16.83;6.93;;;;;;;6.41;69.33;100326.13;10343841;28;20433;-69
2022/12/07 04:54:30;;;;;;;13.70;6.43;;;;;;;6.44;69.66;100314.31;10345340;28;20144;-69
2022/12/07 04:59:31;;;;;;;12.85;6.88;;;;;;;6.41;69.22;100303.91;10343946;28;20120;-75
2022/12/07 05:04:33;;;;;;;16.00;6.82;;;;;;;6.42;69.68;100308.25;10339641;28;20750;-72
2022/12/07 05:09:34;;;;;;;14.23;6.20;;;;;;;6.44;69.57;100322.31;10335575;28;20623;-75
2022/12/07 05:14:35;;;;;;;16.13;7.18;;;;;;;6.63;69.59;100324.84;10339136;28;20132;-73
2022/12/07 05:19:37;;;;;;;14.73;6.10;;;;;;;6.62;69.11;100322.34;10341437;28;20245;-71
2022/12/07 05:24:38;;;;;;;11.02;6.55;;;;;;;6.57;69.50;100322.78;10341185;28;20069;-72
2022/12/07 05:29:40;;;;;;;15.75;7.20;;;;;;;6.70;69.91;100322.44;10325400;28;20080;-72
2022/12/07 05:34:41;;;;;;;13.32;5.38;;;;;;;6.78;69.40;100319.00;10341428;28;20120;-72
2022/12/07 05:39:42;;;;;;;13.63;5.95;;;;;;;6.80;69.64;100315.19;10339202;28;20053;-72
2022/12/07 05:44:46;;;;;;;14.05;5.80;;;;;;;6.81;69.48;100311.50;10343405;28;20548;-69
2022/12/07 05:49:47;;;;;;;13.43;6.15;;;;;;;6.84;69.61;100321.06;10335967;28;20526;-73
2022/12/07 05:54:48;;;;;;;15.35;7.07;;;;;;;6.85;69.16;100302.22;10342457;28;20096;-71
2022/12/07 05:59:50;;;;;;;10.45;5.70;;;;;;;6.96;69.21;100309.16;10338141;28;20133;-73
2022/12/07 06:04:51;;;;;;;11.98;5.63;;;;;;;6.98;69.21;100306.31;10336261;28;20073;-73
2022/12/07 06:09:52;;;;;;;14.57;6.40;;;;;;;6.87;69.06;100318.94;10335806;28;20133;-73
2022/12/07 06:14:54;;;;;;;11.90;5.20;;;;;;;6.79;69.68;100313.47;10337243;28;20057;-71
2022/12/07 06:19:55;;;;;;;13.75;6.68;;;;;;;6.84;69.37;100313.88;10341790;28;20053;-69
2022/12/07 06:24:57;;;;;;;10.60;5.63;;;;;;;6.77;69.26;100312.78;10333906;28;20069;-74
2022/12/07 06:29:59;;;;;;;11.45;5.75;;;;;;;6.70;68.90;100314.41;10342210;28;20142;-72
2022/12/07 06:35:01;;;;;;;16.73;7.22;;;;;;;6.77;69.27;100312.78;10345290;28;20054;-72
2022/12/07 06:40:02;;;;;;;13.20;5.82;;;;;;;6.77;69.55;100310.13;10338862;28;20046;-72
2022/12/07 06:45:05;;;;;;;13.90;6.55;;;;;;;6.69;69.22;100316.22;10338480;28;20100;-70
2022/12/07 06:50:07;;;;;;;13.52;5.65;;;;;;;6.64;69.86;100320.38;10336396;28;20081;-71
2022/12/07 06:55:08;;;;;;;16.48;7.05;;;;;;;6.67;69.32;100325.38;10326227;28;20761;-75
2022/12/07 07:00:11;;;;;;;16.00;7.18;;;;;;;6.71;69.04;100332.09;10333144;28;20145;-74
2022/12/07 07:05:22;;;;;;;12.45;6.78;;;;;;;6.79;68.85;100340.19;10318938;28;20051;-71
2022/12/07 07:10:24;;;;;;;14.88;7.20;;;;;;;6.86;68.57;100341.28;10319846;28;20093;-63
2022/12/07 07:15:25;;;;;;;13.23;7.45;;;;;;;6.88;69.39;100336.63;10336870;28;20502;-63
2022/12/07 07:20:27;;;;;;;15.80;6.75;;;;;;;6.88;69.43;100341.97;10328069;28;20170;-63
2022/12/07 07:25:28;;;;;;;15.93;7.22;;;;;;;6.87;69.05;100348.31;10337061;28;20500;-63
2022/12/07 07:30:30;;;;;;;12.63;6.45;;;;;;;6.84;69.44;100337.91;10340078;28;20137;-64
2022/12/07 07:35:33;;;;;;;12.00;6.32;;;;;;;6.90;69.72;100334.63;10338675;28;20050;-63
2022/12/07 07:40:35;;;;;;;15.32;7.63;;;;;;;6.98;69.23;100325.88;10342892;28;20058;-63
2022/12/07 07:45:36;;;;;;;17.60;8.20;;;;;;;6.92;69.61;100335.31;10343740;28;20404;-62
2022/12/07 07:50:38;;;;;;;19.50;7.88;;;;;;;7.00;69.57;100345.25;10336650;28;20050;-62
2022/12/07 07:55:39;;;;;;;15.65;7.70;;;;;;;7.01;69.56;100338.06;10339312;28;20576;-62
2022/12/07 08:00:41;;;;;;;17.55;7.57;;;;;;;6.93;69.37;100339.69;10338802;28;20548;-61
2022/12/07 08:05:42;;;;;;;16.42;7.45;;;;;;;6.91;70.02;100352.38;10340458;28;20077;-62
2022/12/07 08:10:44;;;;;;;13.75;6.93;;;;;;;6.90;69.43;100350.66;10341930;28;20129;-61
2022/12/07 08:15:47;;;;;;;14.63;7.07;;;;;;;6.88;69.23;100344.63;10349187;28;20065;-62
2022/12/07 08:20:49;;;;;;;12.20;7.05;;;;;;;6.84;69.87;100345.94;10343499;28;20116;-62
2022/12/07 08:25:50;;;;;;;12.15;5.97;;;;;;;6.86;70.36;100351.97;10337997;28;20092;-62
2022/12/07 08:30:51;;;;;;;13.13;5.85;;;;;;;6.94;69.76;100348.53;10339457;28;20545;-61
2022/12/07 08:35:53;;;;;;;9.85;5.47;;;;;;;6.91;69.79;100346.16;10335173;28;20069;-61
2022/12/07 08:40:58;;;;;;;12.82;5.60;;;;;;;6.92;69.91;100350.53;10341341;28;20133;-62
2022/12/07 08:46:08;;;;;;;8.55;5.43;;;;;;;6.92;69.15;100354.03;10341364;28;20070;-62
2022/12/07 08:51:10;;;;;;;10.77;5.38;;;;;;;6.94;70.00;100357.38;10339341;28;20060;-62
2022/12/07 08:56:12;;;;;;;19.67;6.05;;;;;;;7.13;69.44;100363.59;10340480;28;20133;-61
2022/12/07 09:01:13;;;;;;;11.77;5.03;;;;;;;7.16;69.29;100363.28;10337885;28;20045;-62
2022/12/07 09:06:15;;;;;;;8.68;4.38;;;;;;;7.06;69.76;100354.50;10341348;28;20049;-64
2022/12/07 09:11:17;;;;;;;8.63;4.53;;;;;;;7.08;69.06;100360.53;10341449;28;20111;-61
2022/12/07 09:16:18;;;;;;;10.90;4.65;;;;;;;7.01;69.50;100362.13;10334870;28;20134;-62
2022/12/07 09:21:19;;;;;;;7.53;4.38;;;;;;;7.05;69.80;100361.69;10345827;28;20073;-61
2022/12/07 09:26:21;;;;;;;9.35;4.65;;;;;;;7.10;69.00;100378.09;10346116;28;20147;-62
2022/12/07 09:31:22;;;;;;;9.52;3.30;;;;;;;7.20;69.45;100380.69;10342600;28;20077;-64
2022/12/07 09:36:27;;;;;;;9.70;3.95;;;;;;;7.27;69.11;100375.56;10336888;28;20145;-61
2022/12/07 09:41:31;;;;;;;8.68;4.68;;;;;;;7.46;69.07;100370.03;10340094;28;20113;-62
2022/12/07 09:46:38;;;;;;;7.20;3.88;;;;;;;7.53;68.28;100372.94;10335163;28;20065;-62
2022/12/07 09:51:40;;;;;;;10.00;4.38;;;;;;;7.51;68.04;100369.59;10342250;28;20157;-62
2022/12/07 09:56:43;;;;;;;9.63;3.60;;;;;;;7.77;67.68;100366.91;10342240;28;20454;-61
2022/12/07 10:01:48;;;;;;;10.48;4.25;;;;;;;8.02;66.92;100359.03;10342530;28;20066;-64
2022/12/07 10:06:53;;;;;;;7.15;1.85;;;;;;;8.13;66.92;100369.47;10348940;28;20085;-62
2022/12/07 10:12:08;;;;;;;2.88;2.15;;;;;;;7.89;65.62;100356.78;10341179;28;20463;-63
2022/12/07 10:17:40;;;;;;;4.05;1.80;;;;;;;7.94;64.01;100357.16;10342753;28;20050;-65
2022/12/07 10:23:01;;;;;;;2.85;0.85;;;;;;;7.83;63.79;100349.41;10344139;28;20570;-65
2022/12/07 10:28:12;;;;;;;2.78;0.90;;;;;;;8.07;63.46;100346.00;10349296;28;20120;-64
2022/12/07 10:33:38;;;;;;;2.95;0.80;;;;;;;8.07;63.22;100344.16;10345622;28;20084;-65
2022/12/07 10:38:45;;;;;;;7.22;1.40;;;;;;;8.18;63.26;100345.72;10356517;28;20061;-64
2022/12/07 10:43:55;;;;;;;2.88;1.05;;;;;;;8.26;62.51;100336.91;10355800;28;20073;-64
2022/12/07 10:49:19;;;;;;;1.38;1.00;;;;;;;8.23;61.63;100331.84;10354643;28;20066;-65
2022/12/07 10:54:33;;;;;;;4.25;0.77;;;;;;;8.32;61.01;100326.38;10356060;28;20062;-64
2022/12/07 10:59:46;;;;;;;4.72;0.82;;;;;;;8.27;60.26;100322.50;10361541;28;20050;-64
2022/12/07 11:04:59;;;;;;;2.97;0.63;;;;;;;8.44;59.48;100321.59;10358495;28;20096;-64
2022/12/07 11:10:10;;;;;;;3.10;1.05;;;;;;;8.48;59.23;100319.41;10363931;28;20400;-65
2022/12/07 11:15:11;;;;;;;2.00;0.50;;;;;;;8.41;59.74;100316.56;10358275;28;20386;-67
2022/12/07 11:20:22;;;;;;;5.15;0.95;;;;;;;8.27;59.51;100309.09;10353534;28;20090;-65
2022/12/07 11:25:35;;;;;;;2.35;0.70;;;;;;;8.34;59.24;100296.75;10355339;28;20046;-66
2022/12/07 11:30:48;;;;;;;1.10;0.70;;;;;;;8.50;59.46;100298.66;10356144;28;20050;-65
2022/12/07 11:36:01;;;;;;;1.92;0.77;;;;;;;8.47;59.51;100285.59;10339587;28;20132;-67
2022/12/07 11:41:14;;;;;;;1.60;1.00;;;;;;;8.46;58.96;100282.06;10352423;28;20081;-65
2022/12/07 11:46:17;;;;;;;2.17;0.80;;;;;;;8.38;59.29;100265.97;10332471;28;20050;-65
2022/12/07 11:51:22;;;;;;;1.42;0.90;;;;;;;8.38;59.09;100262.44;10356775;28;20520;-65
2022/12/07 11:56:27;;;;;;;3.80;1.38;;;;;;;8.49;59.71;100263.00;10362930;28;20532;-64
2022/12/07 12:01:33;;;;;;;4.68;0.85;;;;;;;8.48;59.15;100250.59;10350492;28;20092;-66
2022/12/07 12:06:35;;;;;;;3.42;0.60;;;;;;;8.49;58.41;100248.75;10350395;28;20065;-62
2022/12/07 12:11:47;;;;;;;1.77;0.68;;;;;;;8.66;57.65;100247.78;10332968;28;20578;-61
2022/12/07 12:17:04;;;;;;;2.38;0.60;;;;;;;8.78;58.08;100247.47;10349004;28;20061;-62
2022/12/07 12:22:15;;;;;;;1.70;0.70;;;;;;;8.81;57.81;100229.22;10352018;28;20074;-61
2022/12/07 12:27:36;;;;;;;3.05;0.73;;;;;;;8.79;57.88;100239.25;10352060;28;20313;-61
2022/12/07 12:32:41;;;;;;;1.48;0.32;;;;;;;8.90;57.62;100236.22;10357507;28;20069;-65
2022/12/07 12:37:44;;;;;;;1.40;0.43;;;;;;;8.68;58.81;100236.91;10379509;28;20042;-64
2022/12/07 12:42:52;;;;;;;3.08;0.68;;;;;;;8.51;59.19;100242.25;10381228;28;20046;-66
2022/12/07 12:48:04;;;;;;;0.70;0.55;;;;;;;8.12;61.25;100252.66;10369592;28;20046;-64
2022/12/07 12:53:14;;;;;;;1.13;0.50;;;;;;;7.53;62.66;100234.69;10386131;28;20672;-65
2022/12/07 12:58:18;;;;;;;1.48;0.40;;;;;;;7.24;64.51;100242.19;10387733;28;20053;-65
2022/12/07 13:03:37;;;;;;;4.00;0.60;;;;;;;7.17;64.38;100238.47;10396618;28;20042;-64
2022/12/07 13:08:41;;;;;;;1.77;0.50;;;;;;;7.01;64.67;100226.69;10378177;28;20034;-64
2022/12/07 13:13:43;;;;;;;4.95;0.70;;;;;;;6.99;64.35;100217.13;10388789;28;20056;-66
2022/12/07 13:18:44;;;;;;;2.75;0.85;;;;;;;7.07;64.08;100219.84;10357339;28;20057;-66
2022/12/07 13:23:45;;;;;;;2.10;0.80;;;;;;;7.31;63.96;100211.16;10395703;28;20037;-64
2022/12/07 13:29:03;;;;;;;4.10;0.85;;;;;;;7.38;64.38;100222.88;10394091;28;20054;-64
2022/12/07 13:34:38;;;;;;;6.10;0.70;;;;;;;7.62;63.52;100221.34;10376918;28;20053;-64
2022/12/07 13:39:59;;;;;;;2.50;0.60;;;;;;;7.53;63.72;100217.81;10369463;28;20080;-64
2022/12/07 13:50:56;;;;;;;4.88;0.85;;;;;;;7.55;63.27;100210.47;10370949;28;20065;-62
2022/12/07 13:55:59;;;;;;;4.38;0.80;;;;;;;7.58;64.04;100215.47;10368668;28;20077;-64
2022/12/07 14:01:00;;;;;;;2.78;0.68;;;;;;;7.54;63.31;100217.66;10362230;28;20053;-64
2022/12/07 14:06:13;;;;;;;1.42;0.70;;;;;;;7.41;63.69;100224.44;10360297;28;20089;-64
2022/12/07 14:11:20;;;;;;;4.68;1.02;;;;;;;7.47;63.54;100213.94;10368772;28;20050;-66
2022/12/07 14:16:25;;;;;;;5.57;1.27;;;;;;;7.43;63.57;100211.75;10369804;28;20142;-64
2022/12/07 14:21:33;;;;;;;10.07;3.28;;;;;;;7.45;63.17;100210.56;10363207;28;20145;-64
2022/12/07 14:26:34;;;;;;;;;;;;;;;7.57;63.21;100205.78;10357221;28;20088;-64
2022/12/07 14:31:36;;;;;;;3.90;1.13;;;;;;;7.63;63.63;100207.81;10358453;28;20453;-63
2022/12/07 14:36:37;;;;;;;2.08;1.10;;;;;;;7.59;63.38;100206.47;10360418;28;20046;-63
2022/12/07 14:41:50;;;;;;;2.28;0.57;;;;;;;7.52;63.16;100205.41;10362253;28;20093;-64
2022/12/07 14:46:53;;;;;;;1.38;0.55;;;;;;;7.48;62.83;100188.84;10354087;28;20472;-64
2022/12/07 14:52:18;;;;;;;2.15;0.45;;;;;;;7.37;63.27;100191.00;10354450;28;20153;-63
2022/12/07 14:57:39;;;;;;;3.05;0.65;;;;;;;7.37;63.21;100191.81;10373042;28;20056;-65
2022/12/07 15:02:41;;;;;;;3.40;0.70;;;;;;;7.26;62.82;100195.59;10365710;28;20540;-65
2022/12/07 15:07:43;;;;;;;1.23;0.50;;;;;;;7.17;64.00;100188.53;10357070;28;20072;-65
2022/12/07 15:12:44;;;;;;;2.45;0.47;;;;;;;7.19;63.14;100181.19;10355472;28;20046;-65
2022/12/07 15:17:46;;;;;;;5.25;0.52;;;;;;;7.21;63.47;100178.34;10358403;28;20123;-64
2022/12/07 15:22:47;;;;;;;2.45;0.73;;;;;;;7.32;63.66;100181.59;10349791;28;20465;-64
2022/12/07 15:27:48;;;;;;;10.32;1.13;;;;;;;7.44;62.40;100182.13;10354591;28;20141;-64
2022/12/07 15:32:53;;;;;;;4.85;0.88;;;;;;;7.44;62.58;100187.50;10349285;28;20140;-63
2022/12/07 15:37:55;;;;;;;3.20;1.15;;;;;;;7.32;63.37;100196.78;10357761;28;20046;-63
2022/12/07 15:42:57;;;;;;;3.85;0.70;;;;;;;7.23;63.41;100185.22;10351798;28;20129;-62
2022/12/07 15:47:58;;;;;;;2.03;0.70;;;;;;;7.29;63.67;100183.75;10324654;28;20074;-63
2022/12/07 15:53:19;;;;;;;5.03;0.93;;;;;;;7.23;63.89;100176.38;10345992;28;20077;-63
2022/12/07 15:58:21;;;;;;;1.10;0.68;;;;;;;7.26;64.37;100176.88;10352256;28;20074;-63
2022/12/07 16:03:22;;;;;;;2.60;0.50;;;;;;;7.26;64.75;100168.03;10350308;28;20580;-64
2022/12/07 16:08:24;;;;;;;3.28;1.00;;;;;;;7.32;64.99;100162.88;10371416;28;20058;-66
2022/12/07 16:13:25;;;;;;;2.20;0.65;;;;;;;7.21;64.68;100155.13;10368999;28;20045;-64
2022/12/07 16:18:27;;;;;;;3.53;1.00;;;;;;;7.20;64.94;100152.63;10372164;28;20059;-64
2022/12/07 16:23:28;;;;;;;2.55;0.80;;;;;;;7.29;65.34;100144.47;10359718;28;20065;-66
2022/12/07 16:28:30;;;;;;;5.65;1.38;;;;;;;7.28;65.88;100140.13;10351491;28;20050;-66
2022/12/07 16:33:31;;;;;;;4.43;1.10;;;;;;;7.32;65.01;100135.28;10375957;28;20053;-64
2022/12/07 16:38:33;;;;;;;4.65;1.92;;;;;;;7.21;65.80;100139.09;10370148;28;20054;-66
2022/12/07 16:43:35;;;;;;;5.43;1.85;;;;;;;7.25;65.20;100143.13;10375646;28;20053;-68
2022/12/07 16:48:38;;;;;;;4.75;1.70;;;;;;;7.36;64.84;100131.31;10376426;28;20717;-64
2022/12/07 16:53:41;;;;;;;6.18;2.25;;;;;;;7.37;65.52;100129.50;10378489;28;20109;-65
2022/12/07 16:58:44;;;;;;;5.72;1.38;;;;;;;7.34;65.49;100123.44;10373861;28;20035;-68
2022/12/07 17:03:46;;;;;;;4.35;1.33;;;;;;;7.31;65.29;100121.09;10374117;28;20026;-67
2022/12/07 17:08:49;;;;;;;7.30;1.05;;;;;;;7.26;65.54;100120.72;10371518;28;20519;-68
2022/12/07 17:19:13;;;;;;;3.30;1.00;;;;;;;7.30;66.31;100115.91;10379982;28;20054;-67
2022/12/07 17:24:16;;;;;;;4.00;0.98;;;;;;;7.25;66.31;100110.22;10368093;28;20053;-64
2022/12/07 17:29:18;;;;;;;6.07;1.48;;;;;;;7.14;66.56;100117.50;10369502;28;20058;-67
2022/12/07 17:34:19;;;;;;;4.38;1.45;;;;;;;7.08;66.33;100118.13;10368401;28;20080;-68
2022/12/07 17:39:21;;;;;;;5.03;1.75;;;;;;;7.18;65.88;100114.53;10361733;28;20058;-66
2022/12/07 17:44:23;;;;;;;1.42;0.88;;;;;;;7.06;65.73;100114.78;10367444;28;20053;-64
2022/12/07 17:49:26;;;;;;;3.83;0.73;;;;;;;6.84;66.31;100105.47;10335136;28;20074;-64
2022/12/07 17:54:28;;;;;;;2.60;0.80;;;;;;;6.90;66.49;100104.84;10356704;28;20068;-63
2022/12/07 17:59:30;;;;;;;2.92;0.60;;;;;;;6.75;66.48;100107.28;10340346;28;20042;-67
2022/12/07 18:04:32;;;;;;;2.17;0.60;;;;;;;6.70;66.66;100108.75;10366077;28;20054;-68
2022/12/07 18:09:34;;;;;;;5.95;0.60;;;;;;;6.60;67.06;100102.66;10355915;28;20038;-67
2022/12/07 18:14:35;;;;;;;5.72;0.90;;;;;;;6.64;66.52;100102.19;10357270;28;20049;-67
2022/12/07 18:19:37;;;;;;;4.43;0.80;;;;;;;6.70;66.53;100093.53;10344441;28;20054;-68
2022/12/07 18:24:38;;;;;;;3.75;1.55;;;;;;;6.78;66.63;100086.59;10359274;28;20061;-67
2022/12/07 18:29:40;;;;;;;6.72;1.00;;;;;;;6.71;66.31;100087.22;10350298;28;20053;-67
2022/12/07 18:34:41;;;;;;;4.70;1.52;;;;;;;6.84;66.34;100076.09;10355617;28;20050;-65
2022/12/07 18:39:42;;;;;;;6.05;2.25;;;;;;;6.84;66.36;100073.44;10337487;28;20955;-65
2022/12/07 18:44:44;;;;;;;2.30;1.05;;;;;;;6.99;66.18;100076.34;10345031;28;20076;-64
2022/12/07 18:49:45;;;;;;;5.05;2.38;;;;;;;7.01;65.53;100068.16;10352380;28;20056;-67
2022/12/07 18:54:47;;;;;;;7.97;3.08;;;;;;;7.12;65.45;100060.69;10343553;28;20077;-66
2022/12/07 18:59:48;;;;;;;7.25;2.15;;;;;;;7.26;65.45;100059.25;10329455;28;20133;-63
2022/12/07 19:04:50;;;;;;;5.20;1.60;;;;;;;7.30;65.05;100059.75;10351727;28;20589;-67
2022/12/07 19:09:51;;;;;;;5.10;1.73;;;;;;;7.23;65.17;100062.25;10361565;28;20521;-63
2022/12/07 19:14:54;;;;;;;5.07;2.60;;;;;;;7.11;65.75;100063.56;10354729;28;20042;-66
2022/12/07 19:19:55;;;;;;;6.57;2.47;;;;;;;7.09;66.17;100058.34;10359823;28;20069;-64
2022/12/07 19:24:57;;;;;;;8.15;2.80;;;;;;;6.98;66.31;100058.63;10363769;28;20073;-63
2022/12/07 19:29:58;;;;;;;4.13;1.63;;;;;;;6.98;66.54;100061.31;10366265;28;20520;-62
2022/12/07 19:35:00;;;;;;;9.45;2.53;;;;;;;7.01;65.92;100050.31;10362211;28;20543;-65
2022/12/07 19:40:03;;;;;;;2.83;1.50;;;;;;;7.00;66.03;100053.97;10360243;28;20489;-61
2022/12/07 19:45:04;;;;;;;7.85;2.63;;;;;;;7.08;66.08;100053.16;10363397;28;20050;-64
2022/12/07 19:50:07;;;;;;;4.93;1.60;;;;;;;7.09;65.13;100047.66;10362314;28;20400;-63
2022/12/07 19:55:08;;;;;;;5.88;1.58;;;;;;;7.17;65.61;100048.69;10366569;28;20081;-64
2022/12/07 20:00:10;;;;;;;5.82;1.88;;;;;;;7.16;65.50;100045.19;10360008;28;20645;-63
2022/12/07 20:05:11;;;;;;;8.48;1.98;;;;;;;7.10;65.98;100035.97;10359022;28;20157;-64
2022/12/07 20:10:13;;;;;;;5.05;1.73;;;;;;;7.04;65.88;100028.59;10361901;28;20080;-62
2022/12/07 20:15:14;;;;;;;3.92;1.00;;;;;;;6.99;65.70;100028.25;10358868;28;20085;-61
2022/12/07 20:20:16;;;;;;;5.50;1.92;;;;;;;7.06;66.57;100033.78;10362697;28;20165;-62
2022/12/07 20:25:18;;;;;;;5.65;1.85;;;;;;;7.06;66.07;100023.09;10360862;28;20050;-64
2022/12/07 20:30:20;;;;;;;5.85;1.73;;;;;;;7.05;66.39;100022.25;10364160;28;20080;-65
2022/12/07 20:35:21;;;;;;;5.60;2.38;;;;;;;7.03;65.99;100026.94;10361624;28;20065;-64
2022/12/07 20:40:23;;;;;;;8.27;3.03;;;;;;;6.95;66.46;100019.72;10340909;28;20076;-64
2022/12/07 20:45:24;;;;;;;8.93;2.97;;;;;;;6.99;66.33;100014.03;10354426;28;20069;-64
2022/12/07 20:50:25;;;;;;;10.00;3.40;;;;;;;7.05;66.42;100010.72;10341821;28;20077;-63
2022/12/07 20:55:27;;;;;;;8.30;2.88;;;;;;;6.99;66.32;99998.88;10361302;28;20054;-64
2022/12/07 21:00:28;;;;;;;8.98;2.72;;;;;;;7.00;66.20;100005.88;10359103;28;20076;-64
2022/12/07 21:05:30;;;;;;;5.03;2.50;;;;;;;7.00;66.44;99997.03;10353005;28;20505;-64
2022/12/07 21:10:31;;;;;;;7.38;2.47;;;;;;;7.01;66.43;99988.84;10356869;28;20093;-65
2022/12/07 21:15:33;;;;;;;11.07;2.97;;;;;;;7.07;66.08;99992.69;10351415;28;20596;-66
2022/12/07 21:20:34;;;;;;;9.82;3.60;;;;;;;6.92;67.13;99985.28;10348990;28;20112;-63
2022/12/07 21:25:36;;;;;;;9.95;4.07;;;;;;;6.81;66.89;99987.41;10355798;28;20068;-63
2022/12/07 21:30:37;;;;;;;7.85;4.13;;;;;;;6.86;66.78;99980.59;10354425;28;20133;-61
2022/12/07 21:36:01;;;;;;;8.68;3.83;;;;;;;6.80;67.14;99981.25;10347616;28;20055;-64
2022/12/07 21:41:17;;;;;;;9.65;4.15;;;;;;;6.71;67.20;99984.88;10350110;28;20049;-66
2022/12/07 21:46:20;;;;;;;6.85;3.97;;;;;;;6.55;68.13;99978.44;10348366;28;20077;-63
2022/12/07 21:51:24;;;;;;;8.73;4.38;;;;;;;6.60;68.39;99978.00;10341814;28;20094;-63
2022/12/07 21:56:28;;;;;;;10.10;4.85;;;;;;;6.60;68.18;99972.66;10347792;28;20084;-62
2022/12/07 22:01:34;;;;;;;9.80;4.13;;;;;;;6.49;68.24;99965.72;10350430;28;20073;-63
2022/12/07 22:06:36;;;;;;;10.07;4.07;;;;;;;6.49;67.52;99960.38;10348696;28;20073;-62
2022/12/07 22:11:38;;;;;;;11.38;4.45;;;;;;;6.42;67.82;99955.84;10351570;28;20050;-65
2022/12/07 22:16:39;;;;;;;11.05;4.70;;;;;;;6.40;68.18;99956.03;10347595;28;20620;-65
2022/12/07 22:21:41;;;;;;;11.95;4.95;;;;;;;6.35;68.06;99961.81;10348168;28;20118;-63
2022/12/07 22:26:42;;;;;;;10.10;4.78;;;;;;;6.35;68.12;99955.66;10348978;28;20074;-62
2022/12/07 22:31:44;;;;;;;8.50;4.47;;;;;;;6.44;67.61;99959.22;10325071;28;20070;-65
2022/12/07 22:36:53;;;;;;;11.38;4.68;;;;;;;6.49;67.34;99952.38;10345587;28;20052;-64
2022/12/07 22:41:54;;;;;;;19.55;5.50;;;;;;;6.49;67.28;99951.56;10346270;28;20050;-64
2022/12/07 22:46:56;;;;;;;13.00;4.70;;;;;;;6.40;68.14;99953.34;10346904;28;20071;-64
2022/12/07 22:51:57;;;;;;;14.05;4.40;;;;;;;6.32;67.71;99940.81;10349124;28;20132;-63
2022/12/07 22:56:59;;;;;;;9.23;4.40;;;;;;;6.31;68.41;99943.63;10347146;28;20074;-62
2022/12/07 23:02:00;;;;;;;8.32;4.65;;;;;;;6.24;67.98;99938.09;10352179;28;20164;-63
2022/12/07 23:07:01;;;;;;;10.95;4.60;;;;;;;6.26;68.59;99929.91;10356293;28;20149;-63
2022/12/07 23:17:23;;;;;;;8.60;4.00;;;;;;;6.22;68.33;99929.41;10355336;28;20077;-65
2022/12/07 23:22:25;;;;;;;9.73;4.80;;;;;;;6.24;68.21;99914.06;10348088;28;20104;-63
2022/12/07 23:27:26;;;;;;;10.32;5.40;;;;;;;6.25;68.43;99915.72;10349783;28;20054;-64
2022/12/07 23:32:27;;;;;;;8.77;4.75;;;;;;;6.30;67.93;99924.09;10353681;28;20081;-65
2022/12/07 23:37:29;;;;;;;7.30;4.57;;;;;;;6.29;68.22;99918.91;10354008;28;20129;-64
2022/12/07 23:42:32;;;;;;;12.07;4.97;;;;;;;6.25;68.42;99912.22;10354452;28;20469;-62
2022/12/07 23:47:33;;;;;;;12.30;5.57;;;;;;;6.11;68.12;99901.13;10344409;28;20449;-65
2022/12/07 23:52:35;;;;;;;10.77;5.38;;;;;;;6.05;68.42;99899.09;10352793;28;20141;-63